Terminal Aerodrome Forecast
Issued by NWS

Home | Current Version | Previous Version | Text Only | Print | Product List | Glossary On
Versions: 1 2 3 4 5 6 7 8 9 10 11 12 13 14 15 16 17
000
FTAK31 PAJN 251100
TAFAYA
TAF
PAYA 251126Z 2512/2612 24010KT 4SM -SHRA SCT005 OVC015
      TEMPO 2512/2516 1 1/2SM SHRA BR BKN005 OVC015
     FM252000 24010KT P6SM VCSH SCT015 BKN030 OVC040
     FM260300 27008KT P6SM VCSH SCT030 OVC050
     FM260900 11005KT P6SM VCSH SCT030 OVC050
      AMD LTD TO CLD VIS AND WIND 2601/2610=

USA.gov is the U.S. government's official web portal to all federal, state and local government web resources and services.